createdAt,value
2022-08-16T00:03:47.723Z,10.60
2022-08-16T00:08:55.044Z,10.40
2022-08-16T00:13:58.913Z,10.52
2022-08-16T00:19:04.391Z,11.05
2022-08-16T00:24:11.521Z,11.35
2022-08-16T00:34:43.359Z,17.15
2022-08-16T00:39:57.502Z,16.37
2022-08-16T00:45:09.463Z,22.30
2022-08-16T00:50:17.908Z,23.55
2022-08-16T00:55:25.958Z,20.42
2022-08-16T01:00:42.174Z,19.33
2022-08-16T01:05:49.955Z,17.55
2022-08-16T01:10:59.924Z,17.75
2022-08-16T01:16:10.466Z,17.25
2022-08-16T01:21:33.749Z,14.90
2022-08-16T01:26:45.385Z,13.70
2022-08-16T01:31:49.626Z,13.90
2022-08-16T01:37:02.114Z,12.60
2022-08-16T01:42:12.134Z,13.00
2022-08-16T01:47:17.494Z,12.73
2022-08-16T01:52:29.873Z,12.60
2022-08-16T01:57:38.088Z,11.75
2022-08-16T02:02:42.409Z,12.07
2022-08-16T02:07:48.199Z,12.05
2022-08-16T02:13:00.765Z,10.80
2022-08-16T02:18:12.497Z,11.30
2022-08-16T02:23:18.204Z,12.13
2022-08-16T02:28:26.199Z,12.48
2022-08-16T02:38:54.584Z,12.70
2022-08-16T02:44:00.086Z,14.00
2022-08-16T02:49:07.274Z,14.40
2022-08-16T02:54:13.758Z,13.60
2022-08-16T02:59:23.389Z,13.95
2022-08-16T03:04:49.558Z,13.65
2022-08-16T03:09:51.079Z,14.60
2022-08-16T03:14:58.224Z,14.57
2022-08-16T03:20:03.160Z,14.70
2022-08-16T03:25:11.925Z,15.75
2022-08-16T03:30:21.445Z,14.77
2022-08-16T03:35:33.418Z,16.37
2022-08-16T03:40:38.966Z,16.30
2022-08-16T03:45:46.129Z,16.45
2022-08-16T03:51:00.076Z,18.50
2022-08-16T03:56:19.932Z,18.55
2022-08-16T04:01:29.429Z,19.10
2022-08-16T04:06:34.361Z,19.23
2022-08-16T04:11:38.284Z,19.75
2022-08-16T04:16:43.633Z,19.62
2022-08-16T04:21:52.598Z,21.10
2022-08-16T04:27:01.176Z,23.83
2022-08-16T04:32:09.233Z,23.75
2022-08-16T04:37:16.228Z,21.80
2022-08-16T04:42:26.226Z,23.25
2022-08-16T04:47:36.111Z,23.70
2022-08-16T04:52:40.600Z,22.58
2022-08-16T04:57:45.864Z,23.12
2022-08-16T05:03:02.624Z,23.73
2022-08-16T05:08:29.961Z,22.75
2022-08-16T05:13:41.604Z,23.20
2022-08-16T05:18:49.359Z,22.30
2022-08-16T05:23:58.625Z,23.60
2022-08-16T05:29:06.864Z,23.75
2022-08-16T05:34:21.326Z,23.55
2022-08-16T05:39:28.202Z,23.27
2022-08-16T05:44:32.160Z,24.52
2022-08-16T05:49:40.266Z,24.02
2022-08-16T05:54:47.556Z,23.30
2022-08-16T05:59:59.508Z,24.75
2022-08-16T06:05:07.533Z,24.33
2022-08-16T06:10:14.940Z,24.40
2022-08-16T06:15:36.228Z,23.35
2022-08-16T06:20:55.489Z,23.65
2022-08-16T06:26:00.365Z,22.92
2022-08-16T06:31:05.834Z,24.23
2022-08-16T06:36:13.884Z,23.38
2022-08-16T06:41:19.662Z,21.98
2022-08-16T06:46:32.050Z,21.90
2022-08-16T06:51:46.639Z,24.08
2022-08-16T06:56:54.127Z,22.17
2022-08-16T07:01:59.779Z,23.83
2022-08-16T07:07:05.930Z,24.48
2022-08-16T07:12:10.528Z,24.17
2022-08-16T07:17:15.657Z,22.98
2022-08-16T07:22:38.719Z,24.58
2022-08-16T07:27:45.627Z,26.35
2022-08-16T07:32:52.097Z,24.48
2022-08-16T07:37:58.663Z,23.75
2022-08-16T07:43:03.566Z,25.60
2022-08-16T07:48:11.565Z,22.77
2022-08-16T07:53:19.579Z,24.05
2022-08-16T07:58:35.206Z,22.98
2022-08-16T08:03:48.307Z,20.40
2022-08-16T08:08:57.041Z,21.27
2022-08-16T08:14:03.652Z,20.30
2022-08-16T08:19:12.916Z,20.03
2022-08-16T08:29:36.546Z,20.60
2022-08-16T08:34:42.142Z,20.17
2022-08-16T08:39:54.626Z,19.92
2022-08-16T08:44:59.586Z,19.70
2022-08-16T08:50:03.762Z,20.00
2022-08-16T08:55:13.481Z,21.25
2022-08-16T09:00:21.197Z,18.42
2022-08-16T09:05:35.791Z,18.30
2022-08-16T09:10:42.823Z,16.60
2022-08-16T09:15:49.435Z,13.73
2022-08-16T09:20:58.748Z,14.93
2022-08-16T09:26:43.965Z,12.57
2022-08-16T09:31:29.609Z,12.65
2022-08-16T09:36:34.326Z,9.77
2022-08-16T09:41:39.527Z,10.82
2022-08-16T09:46:48.261Z,11.07
2022-08-16T09:51:54.888Z,8.32
2022-08-16T09:57:01.169Z,7.62
2022-08-16T10:02:26.889Z,9.10
2022-08-16T10:07:44.522Z,6.15
2022-08-16T10:13:08.311Z,8.20
2022-08-16T10:18:56.599Z,8.02
2022-08-16T10:23:37.563Z,8.45
2022-08-16T10:28:43.358Z,8.10
2022-08-16T10:33:47.429Z,8.85
2022-08-16T10:38:52.198Z,7.50
2022-08-16T10:43:58.269Z,6.43
2022-08-16T10:49:05.087Z,6.43
2022-08-16T10:54:28.828Z,7.43
2022-08-16T10:59:44.068Z,6.53
2022-08-16T11:05:07.043Z,6.68
2022-08-16T11:20:59.626Z,5.00
2022-08-16T11:26:16.297Z,3.65
2022-08-16T11:31:28.384Z,3.80
2022-08-16T11:36:37.146Z,3.53
2022-08-16T11:41:43.612Z,3.03
2022-08-16T11:46:48.898Z,4.12
2022-08-16T11:51:52.890Z,3.50
2022-08-16T11:56:57.149Z,3.33
2022-08-16T12:02:31.606Z,3.35
2022-08-16T12:07:26.740Z,3.55
2022-08-16T12:12:32.711Z,3.78
2022-08-16T12:17:40.978Z,3.83
2022-08-16T12:22:45.257Z,3.60
2022-08-16T12:27:51.081Z,3.15
2022-08-16T12:32:57.901Z,4.25
2022-08-16T12:43:26.856Z,3.20
2022-08-16T12:48:55.029Z,3.45
2022-08-16T12:54:01.371Z,3.33
2022-08-16T12:59:09.596Z,3.30
2022-08-16T13:04:20.537Z,3.17
2022-08-16T13:09:26.126Z,3.22
2022-08-16T13:14:34.147Z,3.30
2022-08-16T13:25:06.534Z,3.75
2022-08-16T13:30:35.449Z,3.10
2022-08-16T13:35:42.793Z,3.37
2022-08-16T13:40:49.688Z,3.70
2022-08-16T13:45:55.686Z,3.78
2022-08-16T13:51:04.107Z,3.00
2022-08-16T13:56:08.146Z,3.90
2022-08-16T14:01:14.380Z,3.45
2022-08-16T14:06:22.091Z,3.10
2022-08-16T14:11:26.420Z,2.60
2022-08-16T14:16:34.056Z,2.80
2022-08-16T14:21:43.008Z,2.70
2022-08-16T14:26:59.630Z,3.10
2022-08-16T14:32:09.238Z,3.35
2022-08-16T14:37:14.681Z,2.90
2022-08-16T14:42:21.221Z,2.87
2022-08-16T14:47:25.234Z,3.00
2022-08-16T14:52:56.382Z,2.75
2022-08-16T14:58:00.842Z,2.60
2022-08-16T15:03:09.627Z,2.75
2022-08-16T15:08:17.062Z,3.15
2022-08-16T15:13:22.452Z,2.45
2022-08-16T15:18:27.894Z,2.50
2022-08-16T15:23:34.333Z,2.78
2022-08-16T15:28:38.346Z,2.65
2022-08-16T15:33:48.631Z,2.62
2022-08-16T15:39:05.762Z,2.55
2022-08-16T15:44:25.640Z,2.75
2022-08-16T15:49:34.746Z,2.62
2022-08-16T15:54:52.458Z,2.05
2022-08-16T16:00:04.918Z,2.40
2022-08-16T16:05:19.966Z,2.60
2022-08-16T16:10:29.487Z,2.67
2022-08-16T16:15:37.522Z,2.55
2022-08-16T16:20:47.584Z,2.83
2022-08-16T16:25:54.736Z,2.58
2022-08-16T16:30:58.834Z,2.47
2022-08-16T16:36:03.957Z,3.10
2022-08-16T16:41:13.254Z,3.05
2022-08-16T16:46:40.411Z,2.75
2022-08-16T16:51:44.858Z,2.70
2022-08-16T16:56:52.314Z,2.78
2022-08-16T17:02:38.224Z,2.67
2022-08-16T17:07:24.423Z,2.80
2022-08-16T17:12:47.308Z,3.70
2022-08-16T17:19:14.677Z,2.67
2022-08-16T17:23:16.506Z,2.90
2022-08-16T17:33:54.365Z,3.10
2022-08-16T17:39:00.067Z,3.12
2022-08-16T17:44:05.575Z,3.22
2022-08-16T17:49:09.291Z,3.05
2022-08-16T17:54:18.795Z,3.40
2022-08-16T17:59:40.852Z,3.47
2022-08-16T18:04:49.374Z,3.03
2022-08-16T18:09:54.728Z,3.00
2022-08-16T18:15:00.469Z,3.15
2022-08-16T18:20:05.029Z,2.95
2022-08-16T18:25:09.561Z,3.03
2022-08-16T18:30:17.566Z,3.62
2022-08-16T18:35:22.321Z,3.70
2022-08-16T18:40:26.598Z,3.35
2022-08-16T18:45:35.165Z,3.03
2022-08-16T18:50:59.474Z,3.40
2022-08-16T18:56:05.435Z,3.47
2022-08-16T19:01:10.540Z,3.60
2022-08-16T19:06:16.160Z,4.20
2022-08-16T19:11:23.402Z,3.67
2022-08-16T19:16:28.532Z,3.60
2022-08-16T19:21:32.419Z,4.57
2022-08-16T19:26:36.208Z,6.53
2022-08-16T19:31:41.648Z,7.80
2022-08-16T19:36:45.372Z,7.18
2022-08-16T19:41:53.489Z,6.80
2022-08-16T19:46:59.259Z,8.73
2022-08-16T19:52:11.706Z,8.98
2022-08-16T19:57:17.670Z,8.40
2022-08-16T20:02:35.625Z,11.63
2022-08-16T20:07:40.201Z,11.88
2022-08-16T20:13:02.524Z,16.77
2022-08-16T20:18:12.686Z,16.58
2022-08-16T20:23:29.002Z,16.83
2022-08-16T20:28:51.651Z,18.05
2022-08-16T20:33:57.864Z,19.62
2022-08-16T20:39:04.145Z,20.45
2022-08-16T20:44:08.171Z,19.85
2022-08-16T20:49:15.032Z,21.70
2022-08-16T20:54:18.845Z,22.80
2022-08-16T20:59:22.672Z,22.98
2022-08-16T21:04:29.939Z,25.85
2022-08-16T21:09:35.896Z,24.77
2022-08-16T21:14:39.836Z,24.17
2022-08-16T21:19:46.057Z,24.50
2022-08-16T21:24:54.121Z,24.12
2022-08-16T21:29:58.097Z,27.15
2022-08-16T21:35:08.062Z,24.23
2022-08-16T21:40:13.475Z,26.20
2022-08-16T21:45:17.439Z,27.33
2022-08-16T21:50:22.604Z,29.25
2022-08-16T21:55:26.430Z,27.73
2022-08-16T22:00:30.728Z,29.30
2022-08-16T22:05:36.017Z,29.02
2022-08-16T22:11:07.669Z,30.40
2022-08-16T22:16:04.811Z,31.98
2022-08-16T22:21:09.891Z,28.25
2022-08-16T22:26:14.718Z,32.35
2022-08-16T22:31:19.029Z,33.28
2022-08-16T22:36:28.929Z,31.93
2022-08-16T22:41:34.555Z,29.02
2022-08-16T22:46:38.476Z,32.72
2022-08-16T22:51:43.523Z,32.63
2022-08-16T22:56:47.219Z,33.22
2022-08-16T23:01:51.015Z,37.97
2022-08-16T23:06:56.116Z,35.22
2022-08-16T23:12:03.774Z,34.22
2022-08-16T23:17:07.816Z,33.70
2022-08-16T23:22:12.946Z,32.83
2022-08-16T23:27:17.081Z,33.38
2022-08-16T23:32:20.964Z,36.05
2022-08-16T23:37:26.497Z,33.17
2022-08-16T23:42:52.418Z,35.45
2022-08-16T23:47:54.882Z,36.20
2022-08-16T23:53:04.632Z,34.97
2022-08-16T23:58:09.247Z,34.95
